Time;durP1;ratioP1;P1;durP2;ratioP2;P2;SDS_P1;SDS_P2;PMS_P1;PMS_P2;Temp;Humidity;BMP_temperature;BMP_pressure;BME280_temperature;BME280_humidity;BME280_pressure;Samples;Min_cycle;Max_cycle;Signal;HPM_P1;HPM_P2
2021/08/01 00:01:50;;;;;;;;;;;18.30;1.00;;;;;;4972725;28;19954;-68
2021/08/01 00:04:15;;;;;;;;;;;18.20;1.00;;;;;;4972927;28;19921;-68
2021/08/01 00:06:41;;;;;;;;;;;18.30;99.90;;;;;;4972971;28;20366;-68
2021/08/01 00:09:06;;;;;;;;;;;18.30;99.90;;;;;;4971124;28;19910;-68
2021/08/01 00:11:32;;;;;;;;;;;18.20;99.90;;;;;;4972459;28;20259;-68
2021/08/01 00:13:57;;;;;;;;;;;18.30;99.90;;;;;;4972885;28;19910;-68
2021/08/01 00:16:24;;;;;;;;;;;18.30;99.90;;;;;;4972397;28;19965;-68
2021/08/01 00:18:49;;;;;;;;;;;18.20;99.90;;;;;;4971679;28;19920;-68
2021/08/01 00:21:15;;;;;;;;;;;18.20;1.00;;;;;;4972342;28;20012;-68
2021/08/01 00:23:40;;;;;;;;;;;18.20;99.90;;;;;;4972708;28;20004;-68
2021/08/01 00:26:06;;;;;;;;;;;18.10;99.90;;;;;;4972470;28;19968;-68
2021/08/01 00:28:31;;;;;;;;;;;18.10;28.70;;;;;;4971721;28;20282;-68
2021/08/01 00:30:59;;;;;;;;;;;17.70;1.00;;;;;;4972331;28;19950;-68
2021/08/01 00:33:25;;;;;;;;;;;17.60;1.00;;;;;;4972580;28;19918;-68
2021/08/01 00:35:50;;;;;;;;;;;17.50;1.00;;;;;;4972415;28;19910;-68
2021/08/01 00:38:16;;;;;;;;;;;17.50;1.00;;;;;;4971778;28;19961;-68
2021/08/01 00:40:41;;;;;;;;;;;17.50;1.00;;;;;;4971996;28;19936;-68
2021/08/01 00:43:07;;;;;;;;;;;17.50;1.00;;;;;;4972137;28;20365;-68
2021/08/01 00:45:34;;;;;;;;;;;17.50;1.00;;;;;;4972575;28;20005;-68
2021/08/01 00:48:00;;;;;;;;;;;17.50;1.00;;;;;;4972294;28;19921;-68
2021/08/01 00:50:25;;;;;;;;;;;17.50;1.00;;;;;;4972355;28;19917;-68
2021/08/01 00:52:51;;;;;;;;;;;17.50;1.00;;;;;;4972264;28;19916;-68
2021/08/01 00:55:17;;;;;;;;;;;17.60;1.00;;;;;;4971883;28;19917;-68
2021/08/01 00:57:42;;;;;;;;;;;17.60;1.00;;;;;;4971330;28;19911;-68
2021/08/01 01:00:14;;;;;;;;;;;17.60;1.00;;;;;;4972035;28;19925;-68
2021/08/01 01:02:42;;;;;;;;;;;17.60;1.00;;;;;;4972085;28;19914;-68
2021/08/01 01:05:14;;;;;;;;;;;17.60;1.00;;;;;;4971987;28;19953;-68
2021/08/01 01:08:11;;;;;;;;;;;17.60;1.00;;;;;;4971895;28;20326;-68
2021/08/01 01:10:45;;;;;;;;;;;17.50;1.00;;;;;;4938883;28;19926;-68
2021/08/01 01:13:15;;;;;;;;;;;17.50;1.00;;;;;;4972127;28;20326;-68
2021/08/01 01:15:50;;;;;;;;;;;17.40;1.00;;;;;;4972050;28;20308;-68
2021/08/01 01:18:20;;;;;;;;;;;17.40;1.00;;;;;;4971839;28;19917;-68
2021/08/01 01:20:55;;;;;;;;;;;17.20;1.00;;;;;;4974414;28;20290;-68
2021/08/01 01:23:39;;;;;;;;;;;17.20;1.00;;;;;;4975700;28;20463;-68
2021/08/01 01:26:25;;;;;;;;;;;17.20;1.00;;;;;;4975404;28;20390;-68
2021/08/01 01:29:03;;;;;;;;;;;17.20;1.00;;;;;;4974366;28;19918;-68
2021/08/01 01:31:31;;;;;;;;;;;17.20;1.00;;;;;;4975381;28;19997;-68
2021/08/01 01:34:11;;;;;;;;;;;17.20;1.00;;;;;;4975677;28;19933;-68
2021/08/01 01:36:39;;;;;;;;;;;17.20;1.00;;;;;;4975838;28;19932;-67
2021/08/01 01:39:05;;;;;;;;;;;17.10;1.00;;;;;;4975192;28;20275;-68
2021/08/01 01:41:31;;;;;;;;;;;17.10;1.00;;;;;;4975090;28;19910;-68
2021/08/01 01:43:57;;;;;;;;;;;17.10;1.00;;;;;;4975530;28;19917;-68
2021/08/01 01:46:23;;;;;;;;;;;17.10;1.00;;;;;;4975514;28;19914;-68
2021/08/01 01:48:50;;;;;;;;;;;17.00;1.00;;;;;;4975119;28;19970;-68
2021/08/01 01:51:15;;;;;;;;;;;16.90;1.00;;;;;;4975214;28;19914;-68
2021/08/01 01:53:41;;;;;;;;;;;16.90;1.00;;;;;;4975171;28;19952;-68
2021/08/01 01:56:08;;;;;;;;;;;16.90;1.00;;;;;;4974997;28;20378;-68
2021/08/01 01:58:34;;;;;;;;;;;16.90;1.00;;;;;;4974651;28;20338;-68
2021/08/01 02:01:00;;;;;;;;;;;16.90;1.00;;;;;;4974966;28;19918;-67
2021/08/01 02:03:25;;;;;;;;;;;16.80;1.00;;;;;;4975193;28;19917;-68
2021/08/01 02:05:51;;;;;;;;;;;16.80;1.00;;;;;;4974650;28;19914;-68
2021/08/01 02:08:16;;;;;;;;;;;16.90;1.00;;;;;;4974799;28;19910;-68
2021/08/01 02:10:47;;;;;;;;;;;16.80;1.00;;;;;;4974608;28;19969;-68
2021/08/01 02:13:15;;;;;;;;;;;16.80;1.00;;;;;;4974996;28;19914;-68
2021/08/01 02:15:42;;;;;;;;;;;16.80;1.00;;;;;;4974544;28;19997;-68
2021/08/01 02:18:09;;;;;;;;;;;16.80;1.00;;;;;;4974485;28;19965;-68
2021/08/01 02:20:45;;;;;;;;;;;16.90;1.00;;;;;;4974605;28;20364;-68
2021/08/01 02:23:15;;;;;;;;;;;16.90;1.00;;;;;;4974826;28;20310;-68
2021/08/01 02:25:41;;;;;;;;;;;16.90;1.00;;;;;;4974321;28;19910;-68
2021/08/01 02:28:07;;;;;;;;;;;16.90;1.00;;;;;;4974639;28;19933;-68
2021/08/01 02:30:33;;;;;;;;;;;17.00;1.00;;;;;;4974234;28;19925;-68
2021/08/01 02:32:59;;;;;;;;;;;17.00;1.00;;;;;;4956300;28;19918;-68
2021/08/01 02:35:25;;;;;;;;;;;17.00;1.00;;;;;;4974345;28;19910;-68
2021/08/01 02:37:55;;;;;;;;;;;17.00;1.00;;;;;;4973618;28;19910;-68
2021/08/01 02:40:20;;;;;;;;;;;17.00;1.00;;;;;;4974001;28;19961;-68
2021/08/01 02:42:48;;;;;;;;;;;17.00;1.00;;;;;;4974231;28;19950;-68
2021/08/01 02:45:15;;;;;;;;;;;16.90;1.00;;;;;;4974727;28;20037;-68
2021/08/01 02:47:40;;;;;;;;;;;16.90;1.00;;;;;;4974096;28;19917;-68
2021/08/01 02:50:07;;;;;;;;;;;16.90;1.00;;;;;;4974081;28;19911;-68
2021/08/01 02:52:51;;;;;;;;;;;16.90;1.00;;;;;;4974042;28;19984;-68
2021/08/01 02:55:17;;;;;;;;;;;17.00;1.00;;;;;;4974178;28;19910;-68
2021/08/01 02:57:45;;;;;;;;;;;17.00;1.00;;;;;;4973231;28;20192;-68
2021/08/01 03:00:11;;;;;;;;;;;17.00;1.00;;;;;;4973866;28;20324;-68
2021/08/01 03:02:38;;;;;;;;;;;17.00;1.00;;;;;;4974064;28;19960;-68
2021/08/01 03:05:04;;;;;;;;;;;17.00;1.00;;;;;;4973971;28;19936;-68
2021/08/01 03:07:30;;;;;;;;;;;17.00;1.00;;;;;;4973624;28;20295;-68
2021/08/01 03:09:55;;;;;;;;;;;17.00;1.00;;;;;;4973571;28;19910;-68
2021/08/01 03:12:21;;;;;;;;;;;17.00;1.00;;;;;;4973041;28;20377;-68
2021/08/01 03:14:46;;;;;;;;;;;17.00;1.00;;;;;;4973794;28;20012;-68
2021/08/01 03:17:12;;;;;;;;;;;17.00;1.00;;;;;;4973471;28;20005;-68
2021/08/01 03:19:39;;;;;;;;;;;17.00;1.00;;;;;;4973671;28;19914;-68
2021/08/01 03:22:05;;;;;;;;;;;17.00;1.00;;;;;;4973751;28;19910;-68
2021/08/01 03:24:30;;;;;;;;;;;17.00;1.00;;;;;;4973592;28;19933;-68
2021/08/01 03:26:56;;;;;;;;;;;17.00;1.00;;;;;;4973224;28;19941;-68
2021/08/01 03:29:21;;;;;;;;;;;17.00;1.00;;;;;;4972941;28;19957;-68
2021/08/01 03:31:47;;;;;;;;;;;17.00;1.00;;;;;;4973445;28;20004;-68
2021/08/01 03:34:12;;;;;;;;;;;17.00;1.00;;;;;;4973051;28;19910;-68
2021/08/01 03:36:38;;;;;;;;;;;17.00;1.00;;;;;;4973432;28;19910;-68
2021/08/01 03:39:04;;;;;;;;;;;17.00;1.00;;;;;;4972912;28;19914;-68
2021/08/01 03:41:29;;;;;;;;;;;17.00;1.00;;;;;;4973000;28;19921;-68
2021/08/01 03:43:55;;;;;;;;;;;17.00;1.00;;;;;;4973168;28;19953;-68
2021/08/01 03:46:20;;;;;;;;;;;17.00;1.00;;;;;;4973129;28;20002;-68
2021/08/01 03:48:46;;;;;;;;;;;17.00;1.00;;;;;;4972585;28;19914;-68
2021/08/01 03:51:11;;;;;;;;;;;16.90;1.00;;;;;;4973056;28;20010;-68
2021/08/01 03:53:37;;;;;;;;;;;16.90;1.00;;;;;;4973056;28;19910;-68
2021/08/01 03:56:03;;;;;;;;;;;16.90;1.00;;;;;;4972854;28;19948;-68
2021/08/01 03:58:29;;;;;;;;;;;16.90;1.00;;;;;;4972113;28;19950;-68
2021/08/01 04:00:54;;;;;;;;;;;16.80;1.00;;;;;;4972932;28;19949;-68
2021/08/01 04:03:20;;;;;;;;;;;16.80;1.00;;;;;;4973032;28;19925;-68
2021/08/01 04:05:45;;;;;;;;;;;16.80;1.00;;;;;;4972949;28;19910;-68
2021/08/01 04:08:10;;;;;;;;;;;16.80;1.00;;;;;;4972318;28;19910;-68
2021/08/01 04:10:36;;;;;;;;;;;16.80;1.00;;;;;;4972305;28;20049;-68
2021/08/01 04:13:02;;;;;;;;;;;16.80;1.00;;;;;;4972694;28;20360;-68
2021/08/01 04:15:27;;;;;;;;;;;16.70;1.00;;;;;;4972551;28;19917;-68
2021/08/01 04:17:53;;;;;;;;;;;16.70;1.00;;;;;;4972085;28;19910;-68
2021/08/01 04:20:18;;;;;;;;;;;16.70;1.00;;;;;;4972598;28;19914;-68
2021/08/01 04:22:44;;;;;;;;;;;16.60;1.00;;;;;;4972237;28;19942;-68
2021/08/01 04:25:10;;;;;;;;;;;16.60;1.00;;;;;;4972429;28;20042;-68
2021/08/01 04:27:35;;;;;;;;;;;16.50;1.00;;;;;;4971661;28;19915;-67
2021/08/01 04:30:01;;;;;;;;;;;16.50;1.00;;;;;;4972891;28;19929;-68
2021/08/01 04:32:26;;;;;;;;;;;16.40;1.00;;;;;;4972124;28;20001;-68
2021/08/01 04:34:52;;;;;;;;;;;16.50;1.00;;;;;;4972438;28;19914;-68
2021/08/01 04:37:17;;;;;;;;;;;16.40;1.00;;;;;;4971673;28;19916;-68
2021/08/01 04:39:43;;;;;;;;;;;16.40;1.00;;;;;;4972112;28;20338;-68
2021/08/01 04:42:09;;;;;;;;;;;16.40;1.00;;;;;;4971979;28;19914;-68
2021/08/01 04:44:34;;;;;;;;;;;16.30;1.00;;;;;;4972087;28;19914;-67
2021/08/01 04:47:00;;;;;;;;;;;16.30;1.00;;;;;;4972127;28;19939;-68
2021/08/01 04:49:25;;;;;;;;;;;16.30;1.00;;;;;;4971434;28;19910;-68
2021/08/01 04:51:51;;;;;;;;;;;16.30;1.00;;;;;;4972184;28;19921;-68
2021/08/01 04:54:16;;;;;;;;;;;16.30;1.00;;;;;;4971527;28;19938;-68
2021/08/01 04:56:42;;;;;;;;;;;16.30;1.00;;;;;;4971736;28;19910;-67
2021/08/01 04:59:08;;;;;;;;;;;16.30;1.00;;;;;;4971258;28;20332;-68
2021/08/01 05:01:33;;;;;;;;;;;16.40;1.00;;;;;;4971878;28;19910;-68
2021/08/01 05:03:58;;;;;;;;;;;16.30;1.00;;;;;;4972018;28;20008;-67
2021/08/01 05:06:24;;;;;;;;;;;16.30;1.00;;;;;;4971874;28;19915;-68
2021/08/01 05:08:49;;;;;;;;;;;16.40;1.00;;;;;;4971295;28;20342;-68
2021/08/01 05:11:15;;;;;;;;;;;16.40;1.00;;;;;;4971455;28;19911;-68
2021/08/01 05:13:40;;;;;;;;;;;16.40;1.00;;;;;;4971855;28;19949;-68
2021/08/01 05:16:06;;;;;;;;;;;16.40;1.00;;;;;;4971466;28;19965;-68
2021/08/01 05:18:31;;;;;;;;;;;16.40;1.00;;;;;;4971315;28;19911;-68
2021/08/01 05:20:57;;;;;;;;;;;16.50;1.00;;;;;;4971786;28;19956;-68
2021/08/01 05:23:23;;;;;;;;;;;16.50;1.00;;;;;;4971782;28;19910;-67
2021/08/01 05:25:48;;;;;;;;;;;16.50;1.00;;;;;;4971494;28;19918;-68
2021/08/01 05:28:14;;;;;;;;;;;16.60;1.00;;;;;;4971328;28;19914;-68
2021/08/01 05:30:39;;;;;;;;;;;16.70;1.00;;;;;;4971691;28;19935;-67
2021/08/01 05:33:06;;;;;;;;;;;16.80;1.00;;;;;;4971844;28;20279;-68
2021/08/01 05:35:31;;;;;;;;;;;16.80;1.00;;;;;;4971790;28;19914;-67
2021/08/01 05:37:57;;;;;;;;;;;16.80;1.00;;;;;;4971030;28;19956;-68
2021/08/01 05:40:22;;;;;;;;;;;16.90;1.00;;;;;;4971787;28;20303;-68
2021/08/01 05:42:48;;;;;;;;;;;16.90;1.00;;;;;;4971144;28;19910;-68
2021/08/01 05:45:13;;;;;;;;;;;16.90;1.00;;;;;;4971480;28;19914;-68
2021/08/01 05:47:39;;;;;;;;;;;16.90;1.00;;;;;;4970999;28;19917;-68
2021/08/01 05:50:05;;;;;;;;;;;16.80;1.00;;;;;;4971704;28;19914;-68
2021/08/01 05:52:30;;;;;;;;;;;16.90;1.00;;;;;;4971703;28;19910;-67
2021/08/01 05:54:56;;;;;;;;;;;16.90;1.00;;;;;;4971482;28;20363;-68
2021/08/01 05:57:21;;;;;;;;;;;16.90;1.00;;;;;;4970420;28;19915;-68
2021/08/01 05:59:47;;;;;;;;;;;16.90;1.00;;;;;;4970948;28;19929;-68
2021/08/01 06:02:12;;;;;;;;;;;16.90;1.00;;;;;;4971415;28;19954;-68
2021/08/01 06:04:38;;;;;;;;;;;17.00;1.00;;;;;;4971374;28;19917;-68
2021/08/01 06:07:03;;;;;;;;;;;17.10;1.00;;;;;;4972597;28;19914;-68
2021/08/01 06:09:29;;;;;;;;;;;17.10;1.00;;;;;;4973944;28;19976;-68
2021/08/01 06:11:55;;;;;;;;;;;17.10;1.00;;;;;;4974341;28;19941;-68
2021/08/01 06:14:20;;;;;;;;;;;17.20;99.90;;;;;;4974931;28;19921;-67
2021/08/01 06:16:46;;;;;;;;;;;17.20;99.90;;;;;;4974766;28;20569;-67
2021/08/01 06:19:11;;;;;;;;;;;17.10;99.90;;;;;;4974078;28;19922;-67
2021/08/01 06:21:37;;;;;;;;;;;17.00;99.90;;;;;;4974121;28;20286;-67
2021/08/01 06:24:02;;;;;;;;;;;16.90;99.90;;;;;;4974932;28;19959;-67
2021/08/01 06:26:28;;;;;;;;;;;16.80;1.00;;;;;;4974322;28;19917;-67
2021/08/01 06:28:53;;;;;;;;;;;16.70;1.00;;;;;;4973865;28;19918;-67
2021/08/01 06:31:19;;;;;;;;;;;16.70;1.00;;;;;;4974640;28;19976;-67
2021/08/01 06:33:45;;;;;;;;;;;16.60;1.00;;;;;;4974537;28;19918;-68
2021/08/01 06:36:11;;;;;;;;;;;16.30;1.00;;;;;;4974588;28;19910;-67
2021/08/01 06:38:37;;;;;;;;;;;16.20;1.00;;;;;;4973945;28;19922;-68
2021/08/01 06:41:03;;;;;;;;;;;16.20;1.00;;;;;;4973874;28;19910;-68
2021/08/01 06:43:29;;;;;;;;;;;16.30;1.00;;;;;;4974079;28;20230;-68
2021/08/01 06:45:54;;;;;;;;;;;16.40;1.00;;;;;;4973794;28;19910;-68
2021/08/01 06:48:20;;;;;;;;;;;16.50;1.00;;;;;;4973665;28;19914;-68
2021/08/01 06:50:46;;;;;;;;;;;16.50;1.00;;;;;;4973924;28;19914;-68
2021/08/01 06:53:11;;;;;;;;;;;16.60;1.00;;;;;;4974060;28;20315;-68
2021/08/01 06:55:36;;;;;;;;;;;16.70;1.00;;;;;;4973519;28;19960;-68
2021/08/01 06:58:02;;;;;;;;;;;16.70;1.00;;;;;;4973481;28;20340;-67
2021/08/01 07:00:28;;;;;;;;;;;16.60;1.00;;;;;;4973992;28;19910;-68
2021/08/01 07:02:54;;;;;;;;;;;16.60;1.00;;;;;;4973855;28;20371;-68
2021/08/01 07:05:19;;;;;;;;;;;16.60;1.00;;;;;;4974168;28;20447;-68
2021/08/01 07:07:45;;;;;;;;;;;16.60;1.00;;;;;;4972933;28;20021;-68
2021/08/01 07:10:10;;;;;;;;;;;16.60;1.00;;;;;;4973574;28;19914;-68
2021/08/01 07:12:38;;;;;;;;;;;16.60;1.00;;;;;;4973150;28;19914;-68
2021/08/01 07:15:04;;;;;;;;;;;16.70;1.00;;;;;;4974004;28;19957;-68
2021/08/01 07:17:30;;;;;;;;;;;16.80;1.00;;;;;;4972568;28;19959;-68
2021/08/01 07:19:55;;;;;;;;;;;16.90;1.00;;;;;;4973341;28;19910;-68
2021/08/01 07:22:21;;;;;;;;;;;17.00;1.00;;;;;;4973566;28;19914;-68
2021/08/01 07:24:46;;;;;;;;;;;17.10;1.00;;;;;;4973424;28;19958;-68
2021/08/01 07:27:12;;;;;;;;;;;17.20;1.00;;;;;;4972821;28;19910;-68
2021/08/01 07:29:37;;;;;;;;;;;17.30;1.00;;;;;;4972848;28;19918;-66
2021/08/01 07:32:03;;;;;;;;;;;17.30;1.00;;;;;;4973208;28;19962;-68
2021/08/01 07:34:28;;;;;;;;;;;17.30;1.00;;;;;;4973956;28;20010;-68
2021/08/01 07:36:54;;;;;;;;;;;17.40;1.00;;;;;;4973163;28;19914;-66
2021/08/01 07:39:19;;;;;;;;;;;17.40;1.00;;;;;;4972479;28;20090;-68
2021/08/01 07:41:45;;;;;;;;;;;17.40;1.00;;;;;;4972775;28;19997;-68
2021/08/01 07:44:10;;;;;;;;;;;17.40;1.00;;;;;;4972923;28;19929;-66
2021/08/01 07:46:36;;;;;;;;;;;17.50;1.00;;;;;;4972954;28;19910;-68
2021/08/01 07:49:01;;;;;;;;;;;17.60;99.90;;;;;;4972554;28;20016;-68
2021/08/01 07:51:27;;;;;;;;;;;17.70;99.90;;;;;;4973050;28;20282;-68
2021/08/01 07:53:52;;;;;;;;;;;17.70;99.90;;;;;;4972954;28;19910;-68
2021/08/01 07:56:17;;;;;;;;;;;17.80;99.90;;;;;;4972065;28;19910;-68
2021/08/01 07:58:43;;;;;;;;;;;17.90;99.90;;;;;;4971847;28;19918;-68
2021/08/01 08:01:09;;;;;;;;;;;18.00;1.00;;;;;;4972602;28;19910;-66
2021/08/01 08:03:34;;;;;;;;;;;18.00;1.00;;;;;;4972747;28;19993;-67
2021/08/01 08:06:05;;;;;;;;;;;18.10;1.00;;;;;;4972645;28;20370;-67
2021/08/01 08:08:31;;;;;;;;;;;18.10;1.00;;;;;;4972140;28;20294;-67
2021/08/01 08:10:56;;;;;;;;;;;18.20;1.00;;;;;;4972089;28;19914;-67
2021/08/01 08:13:22;;;;;;;;;;;18.20;1.00;;;;;;4972653;28;19921;-67
2021/08/01 08:15:47;;;;;;;;;;;18.20;1.00;;;;;;4955055;28;19941;-67
2021/08/01 08:18:13;;;;;;;;;;;18.30;99.90;;;;;;4971714;28;20310;-67
2021/08/01 08:20:38;;;;;;;;;;;18.30;99.90;;;;;;4972647;28;20319;-67
2021/08/01 08:23:04;;;;;;;;;;;18.50;1.00;;;;;;4972464;28;19973;-67
2021/08/01 08:25:29;;;;;;;;;;;18.80;99.90;;;;;;4972335;28;19910;-67
2021/08/01 08:27:55;;;;;;;;;;;19.00;14.80;;;;;;4971286;28;19953;-67
2021/08/01 08:30:20;;;;;;;;;;;19.20;99.90;;;;;;4971137;28;19953;-67
2021/08/01 08:32:46;;;;;;;;;;;19.30;99.90;;;;;;4972390;28;20009;-67
2021/08/01 08:35:11;;;;;;;;;;;19.20;99.90;;;;;;4972839;28;19910;-67
2021/08/01 08:37:43;;;;;;;;;;;19.00;99.90;;;;;;4972161;28;19911;-67
2021/08/01 08:40:09;;;;;;;;;;;18.80;99.90;;;;;;4972272;28;19910;-68
2021/08/01 08:42:35;;;;;;;;;;;18.50;99.90;;;;;;4971753;28;20405;-67
2021/08/01 08:45:00;;;;;;;;;;;18.40;1.00;;;;;;4972493;28;19918;-67
2021/08/01 08:47:27;;;;;;;;;;;18.20;1.00;;;;;;4971896;28;19973;-67
2021/08/01 08:49:55;;;;;;;;;;;18.00;99.90;;;;;;4972212;28;19918;-67
2021/08/01 08:52:20;;;;;;;;;;;18.00;99.90;;;;;;4972053;28;20255;-68
2021/08/01 08:54:48;;;;;;;;;;;18.10;1.00;;;;;;4971859;28;19910;-67
2021/08/01 08:57:16;;;;;;;;;;;18.30;1.00;;;;;;4971868;28;20334;-67
2021/08/01 08:59:42;;;;;;;;;;;18.40;99.90;;;;;;4972005;28;20259;-67
2021/08/01 09:02:10;;;;;;;;;;;18.30;99.90;;;;;;4972209;28;19942;-67
2021/08/01 09:04:36;;;;;;;;;;;18.50;99.90;;;;;;4971929;28;19910;-67
2021/08/01 09:07:02;;;;;;;;;;;18.50;1.00;;;;;;4971924;28;19910;-67
2021/08/01 09:09:27;;;;;;;;;;;18.50;1.00;;;;;;4971667;28;19914;-67
2021/08/01 09:11:53;;;;;;;;;;;18.60;1.00;;;;;;4971723;28;19910;-67
2021/08/01 09:14:19;;;;;;;;;;;18.60;1.00;;;;;;4972238;28;19910;-67
2021/08/01 09:16:49;;;;;;;;;;;18.60;1.00;;;;;;4971568;28;19917;-67
2021/08/01 09:19:26;;;;;;;;;;;18.70;1.00;;;;;;4970981;28;19914;-67
2021/08/01 09:21:52;;;;;;;;;;;18.80;1.00;;;;;;4971700;28;20022;-67
2021/08/01 09:24:18;;;;;;;;;;;18.80;1.00;;;;;;4971936;28;20073;-68
2021/08/01 09:26:48;;;;;;;;;;;18.90;1.00;;;;;;4971536;28;19914;-68
2021/08/01 09:29:14;;;;;;;;;;;19.00;99.90;;;;;;4971080;28;19925;-68
2021/08/01 09:31:41;;;;;;;;;;;19.30;99.90;;;;;;4971639;28;19916;-68
2021/08/01 09:34:19;;;;;;;;;;;19.50;89.20;;;;;;4971692;28;19914;-68
2021/08/01 09:36:54;;;;;;;;;;;19.60;1.00;;;;;;4971755;28;20375;-68
2021/08/01 09:39:21;;;;;;;;;;;19.80;99.90;;;;;;4971338;28;20287;-68
2021/08/01 09:41:46;;;;;;;;;;;20.00;65.90;;;;;;4973828;28;19911;-68
2021/08/01 09:44:18;;;;;;;;;;;20.10;1.00;;;;;;4975611;28;20010;-68
2021/08/01 09:46:44;;;;;;;;;;;20.20;1.00;;;;;;4975218;28;19932;-68
2021/08/01 09:49:17;;;;;;;;;;;20.50;99.90;;;;;;4974063;28;19980;-68
2021/08/01 09:51:44;;;;;;;;;;;20.70;99.90;;;;;;4975204;28;20375;-68
2021/08/01 09:54:13;;;;;;;;;;;21.00;1.00;;;;;;4975533;28;20334;-68
2021/08/01 09:56:39;;;;;;;;;;;21.10;1.00;;;;;;4974705;28;19914;-68
2021/08/01 09:59:17;;;;;;;;;;;21.20;1.00;;;;;;4974475;28;19984;-68
2021/08/01 10:01:55;;;;;;;;;;;21.20;99.90;;;;;;4975389;28;19949;-69
2021/08/01 10:04:28;;;;;;;;;;;21.20;99.90;;;;;;4975069;28;19925;-68
2021/08/01 10:07:20;;;;;;;;;;;21.00;99.90;;;;;;4975071;28;20264;-68
2021/08/01 10:09:49;;;;;;;;;;;20.90;99.90;;;;;;4971315;28;19915;-68
2021/08/01 10:12:14;;;;;;;;;;;20.70;99.90;;;;;;4974230;28;19914;-68
2021/08/01 10:14:42;;;;;;;;;;;20.60;1.00;;;;;;4974714;28;20363;-68
2021/08/01 10:17:08;;;;;;;;;;;20.50;1.00;;;;;;4974173;28;19922;-68
2021/08/01 10:19:34;;;;;;;;;;;20.30;1.00;;;;;;4974118;28;19986;-68
2021/08/01 10:22:00;;;;;;;;;;;20.20;1.00;;;;;;4974461;28;20391;-68
2021/08/01 10:24:28;;;;;;;;;;;20.20;1.00;;;;;;4974637;28;20013;-68
2021/08/01 10:26:55;;;;;;;;;;;20.30;1.00;;;;;;4974042;28;19910;-69
2021/08/01 10:29:30;;;;;;;;;;;20.20;1.00;;;;;;5004223;23;19929;-67
2021/08/01 10:32:04;;;;;;;;;;;20.20;1.00;;;;;;5013958;28;19925;-67
2021/08/01 10:34:37;;;;;;;;;;;20.20;1.00;;;;;;5013434;28;19910;-66
2021/08/01 10:37:07;;;;;;;;;;;20.30;1.00;;;;;;5013041;28;20281;-67
2021/08/01 10:39:33;;;;;;;;;;;20.40;1.00;;;;;;5012588;28;20370;-67
2021/08/01 10:42:01;;;;;;;;;;;20.50;1.00;;;;;;5012708;28;19917;-67
2021/08/01 10:44:27;;;;;;;;;;;20.50;1.00;;;;;;5013196;28;19959;-67
2021/08/01 10:46:53;;;;;;;;;;;20.60;1.00;;;;;;5013245;28;19916;-67
2021/08/01 10:49:18;;;;;;;;;;;20.80;1.00;;;;;;5012031;28;19917;-67
2021/08/01 10:51:44;;;;;;;;;;;21.10;1.00;;;;;;5012896;28;20370;-66
2021/08/01 10:54:19;;;;;;;;;;;21.30;99.90;;;;;;5012431;28;19932;-66
2021/08/01 10:56:44;;;;;;;;;;;21.40;99.90;;;;;;5012543;28;19913;-66
2021/08/01 10:59:29;;;;;;;;;;;21.60;99.90;;;;;;5012233;28;19909;-66
2021/08/01 11:02:24;;;;;;;;;;;21.60;99.90;;;;;;5012636;28;20067;-65
2021/08/01 11:04:51;;;;;;;;;;;21.90;1.00;;;;;;4995931;28;19910;-66
2021/08/01 11:07:26;;;;;;;;;;;22.20;1.00;;;;;;5011955;28;20365;-65
2021/08/01 11:10:17;;;;;;;;;;;22.40;1.00;;;;;;5012365;28;19967;-66
2021/08/01 11:12:44;;;;;;;;;;;22.70;1.00;;;;;;5012199;28;20000;-65
2021/08/01 11:15:09;;;;;;;;;;;23.10;1.00;;;;;;5012840;28;19959;-67
2021/08/01 11:17:42;;;;;;;;;;;23.70;1.00;;;;;;5011793;28;19957;-67
2021/08/01 11:20:16;;;;;;;;;;;24.20;1.00;;;;;;5012837;28;19910;-66
2021/08/01 11:22:44;;;;;;;;;;;24.40;99.90;;;;;;5012340;28;19937;-67
2021/08/01 11:25:30;;;;;;;;;;;24.50;99.90;;;;;;5012532;28;19910;-66
2021/08/01 11:28:07;;;;;;;;;;;24.60;99.90;;;;;;5011154;28;19910;-67
2021/08/01 11:30:54;;;;;;;;;;;24.80;99.90;;;;;;5012362;28;20290;-67
2021/08/01 11:33:29;;;;;;;;;;;25.60;99.90;;;;;;5010948;28;19917;-67
2021/08/01 11:36:10;;;;;;;;;;;26.40;99.90;;;;;;5012205;28;19917;-67
2021/08/01 11:38:36;;;;;;;;;;;26.80;99.90;;;;;;5011644;28;20032;-68
2021/08/01 11:41:01;;;;;;;;;;;26.90;99.90;;;;;;5011510;28;20457;-65
2021/08/01 11:43:27;;;;;;;;;;;26.80;99.90;;;;;;5012002;28;20320;-67
2021/08/01 11:46:00;;;;;;;;;;;26.70;99.90;;;;;;5011724;28;20051;-66
2021/08/01 11:48:25;;;;;;;;;;;26.30;99.90;;;;;;5011352;28;19910;-66
2021/08/01 11:50:53;;;;;;;;;;;26.10;99.90;;;;;;5011708;28;20036;-67
2021/08/01 11:53:18;;;;;;;;;;;26.20;99.90;;;;;;5012027;28;20291;-66
2021/08/01 11:55:47;;;;;;;;;;;26.10;99.90;;;;;;5011422;28;20008;-66
2021/08/01 11:58:13;;;;;;;;;;;26.40;99.90;;;;;;5011549;28;19910;-66
2021/08/01 12:00:39;;;;;;;;;;;26.30;99.90;;;;;;5011788;28;20124;-66
2021/08/01 12:03:04;;;;;;;;;;;26.10;99.90;;;;;;5011915;28;19909;-66
2021/08/01 12:05:42;;;;;;;;;;;26.00;99.90;;;;;;5011609;28;19913;-67
2021/08/01 12:08:08;;;;;;;;;;;26.20;99.90;;;;;;5010751;28;20037;-67
2021/08/01 12:10:33;;;;;;;;;;;26.40;99.90;;;;;;5011486;28;20362;-67
2021/08/01 12:13:07;;;;;;;;;;;26.50;99.90;;;;;;5010840;28;19916;-66
2021/08/01 12:15:36;;;;;;;;;;;26.20;99.90;;;;;;5011736;28;20258;-66
2021/08/01 12:18:02;;;;;;;;;;;26.20;99.90;;;;;;5010360;28;20008;-66
2021/08/01 12:20:32;;;;;;;;;;;25.80;99.90;;;;;;5011341;28;19917;-66
2021/08/01 12:22:58;;;;;;;;;;;25.70;99.90;;;;;;5010071;28;19917;-66
2021/08/01 12:25:23;;;;;;;;;;;25.90;99.90;;;;;;5011754;28;19913;-66
2021/08/01 12:27:49;;;;;;;;;;;25.80;99.90;;;;;;5010561;28;19910;-66
2021/08/01 12:30:19;;;;;;;;;;;25.90;99.90;;;;;;5011114;28;19965;-66
2021/08/01 12:32:47;;;;;;;;;;;25.80;99.90;;;;;;5010567;28;20230;-67
2021/08/01 12:35:17;;;;;;;;;;;25.60;99.90;;;;;;5011267;28;19931;-67
2021/08/01 12:37:42;;;;;;;;;;;25.00;99.90;;;;;;5010485;28;19937;-66
2021/08/01 12:40:09;;;;;;;;;;;24.40;99.90;;;;;;5011149;28;20374;-66
2021/08/01 12:42:34;;;;;;;;;;;24.10;99.90;;;;;;5010680;28;19914;-66
2021/08/01 12:45:01;;;;;;;;;;;23.60;99.90;;;;;;5011278;28;19944;-66
2021/08/01 12:47:27;;;;;;;;;;;23.40;99.90;;;;;;5010536;28;19997;-66
2021/08/01 12:49:54;;;;;;;;;;;23.10;99.90;;;;;;5010844;28;19921;-65
2021/08/01 12:52:20;;;;;;;;;;;22.60;99.90;;;;;;5010302;28;19960;-67
2021/08/01 12:54:46;;;;;;;;;;;22.20;99.90;;;;;;5010948;28;19920;-67
2021/08/01 12:57:12;;;;;;;;;;;21.80;99.90;;;;;;5010224;28;19918;-67
2021/08/01 12:59:37;;;;;;;;;;;21.60;99.90;;;;;;5010719;28;19909;-66
2021/08/01 13:02:03;;;;;;;;;;;21.50;99.90;;;;;;5009780;28;20297;-66
2021/08/01 13:04:39;;;;;;;;;;;21.30;99.90;;;;;;5010837;28;19941;-66
2021/08/01 13:07:04;;;;;;;;;;;21.00;99.90;;;;;;5010789;28;19920;-66
2021/08/01 13:09:30;;;;;;;;;;;20.90;1.00;;;;;;5010292;28;19918;-66
2021/08/01 13:11:56;;;;;;;;;;;21.10;1.00;;;;;;5011471;28;20319;-66
2021/08/01 13:14:32;;;;;;;;;;;21.60;1.00;;;;;;5011322;28;19914;-66
2021/08/01 13:16:57;;;;;;;;;;;22.10;99.90;;;;;;5014658;28;19972;-65
2021/08/01 13:19:24;;;;;;;;;;;22.30;99.90;;;;;;5014818;28;19956;-65
2021/08/01 13:22:09;;;;;;;;;;;22.30;99.90;;;;;;5015257;28;19909;-66
2021/08/01 13:24:36;;;;;;;;;;;22.40;99.90;;;;;;5014524;28;20290;-66
2021/08/01 13:27:03;;;;;;;;;;;22.80;99.90;;;;;;5014469;28;20007;-65
2021/08/01 13:29:29;;;;;;;;;;;23.20;99.90;;;;;;5013774;28;20315;-66
2021/08/01 13:31:55;;;;;;;;;;;23.40;99.90;;;;;;5014585;28;19916;-66
2021/08/01 13:34:22;;;;;;;;;;;23.30;99.90;;;;;;5014841;28;20120;-65
2021/08/01 13:36:47;;;;;;;;;;;23.70;99.90;;;;;;5014157;28;19916;-66
2021/08/01 13:39:14;;;;;;;;;;;23.90;99.90;;;;;;5013681;28;19914;-66
2021/08/01 13:41:41;;;;;;;;;;;22.60;99.90;;;;;;5014291;28;19909;-65
2021/08/01 13:44:10;;;;;;;;;;;22.60;99.90;;;;;;5014460;28;19917;-66
2021/08/01 13:46:35;;;;;;;;;;;22.50;99.90;;;;;;5013997;28;19913;-66
2021/08/01 13:49:01;;;;;;;;;;;21.90;99.90;;;;;;5013557;28;20104;-66
2021/08/01 13:51:27;;;;;;;;;;;21.50;99.90;;;;;;5014335;28;19913;-65
2021/08/01 13:53:52;;;;;;;;;;;21.30;99.90;;;;;;5014153;28;20422;-66
2021/08/01 13:56:18;;;;;;;;;;;21.30;99.90;;;;;;5013842;28;19913;-66
2021/08/01 13:58:43;;;;;;;;;;;21.40;99.90;;;;;;5013358;28;20017;-67
2021/08/01 14:01:09;;;;;;;;;;;21.40;99.90;;;;;;5013980;28;19916;-66
2021/08/01 14:03:36;;;;;;;;;;;21.20;99.90;;;;;;5014087;28;19963;-66
2021/08/01 14:06:02;;;;;;;;;;;20.80;99.90;;;;;;5014013;28;19920;-65
2021/08/01 14:08:27;;;;;;;;;;;20.70;99.90;;;;;;5013363;28;19914;-65
2021/08/01 14:10:53;;;;;;;;;;;20.60;99.90;;;;;;5013083;28;20319;-66
2021/08/01 14:13:19;;;;;;;;;;;20.50;99.90;;;;;;5014189;28;20404;-66
2021/08/01 14:15:44;;;;;;;;;;;20.30;1.00;;;;;;5013708;28;19910;-66
2021/08/01 14:18:10;;;;;;;;;;;20.10;1.00;;;;;;5013250;28;19913;-65
2021/08/01 14:20:35;;;;;;;;;;;19.80;1.00;;;;;;5013815;28;19914;-65
2021/08/01 14:23:01;;;;;;;;;;;19.80;1.00;;;;;;5013255;28;20373;-66
2021/08/01 14:25:28;;;;;;;;;;;19.70;1.00;;;;;;5013602;28;19909;-66
2021/08/01 14:27:54;;;;;;;;;;;19.70;1.00;;;;;;5011305;28;20317;-66